This is the latest recevied weather packets stored in our database for station/object KE4ODN. If no packets are shown the sender has not sent any weather packets the latest 10 day(s).
| Time | Temp. | Humidity | Pressure | Rain* | Wind** | Luminosity | Snow |
|---|---|---|---|---|---|---|---|
| 1777682644 | 15° C | 92% | 1012.9 hPa | 0 mm | - | 0 W/m² | - |
| 1777682404 | 15° C | 92% | 1012.9 hPa | 0 mm | - | 0 W/m² | - |
| 1777680964 | 15.56° C | 91% | 1013 hPa | 0 mm | - | 0 W/m² | - |
| 1777680244 | 15.56° C | 90% | 1012.9 hPa | 0 mm | - | 0 W/m² | - |
| 1777678324 | 15.56° C | 87% | 1012.7 hPa | 0 mm | - | 12 W/m² | - |
| 1777676644 | 16.11° C | 84% | 1012.6 hPa | 0 mm | - | 19 W/m² | - |
| 1777676185 | 16.11° C | 82% | 1012.5 hPa | 0 mm | - | 19 W/m² | - |
| 1777674245 | 16.67° C | 77% | 1012.6 hPa | 0 mm | - | 40 W/m² | - |
| 1777674005 | 16.67° C | 79% | 1012.6 hPa | 0 mm | - | 42 W/m² | - |
| 1777673284 | 16.67° C | 79% | 1012.6 hPa | 0 mm | - | 47 W/m² | - |
| 1777672324 | 17.22° C | 78% | 1012.4 hPa | 0 mm | - | 54 W/m² | - |
| 1777671844 | 17.22° C | 79% | 1012.3 hPa | 0 mm | - | 69 W/m² | - |
| 1777670403 | 17.78° C | 73% | 1011.9 hPa | 0 mm | - | 120 W/m² | - |
| 1777668243 | 17.78° C | 70% | 1012.7 hPa | 0 mm | - | 151 W/m² | - |
| 1777667763 | 17.78° C | 71% | 1012.9 hPa | 0 mm | - | 162 W/m² | - |
| 1777666825 | 17.78° C | 69% | 1013.2 hPa | 0 mm | - | 174 W/m² | - |
| 1777664184 | 18.33° C | 73% | 1014.3 hPa | 0 mm | - | 316 W/m² | - |
| 1777662963 | 17.22° C | 78% | 1014.5 hPa | 0 mm | - | 206 W/m² | - |
| 1777661763 | 16.67° C | 78% | 1014.3 hPa | 0 mm | - | 171 W/m² | - |
| 1777660324 | 16.67° C | 79% | 1014.2 hPa | 0 mm | - | 185 W/m² | - |
| 1777659364 | 16.67° C | 80% | 1014.2 hPa | 0 mm | - | 287 W/m² | - |
| 1777658884 | 16.67° C | 78% | 1014.3 hPa | 0 mm | - | 267 W/m² | - |
| 1777658643 | 16.67° C | 77% | 1014.3 hPa | 0 mm | - | 250 W/m² | - |
| 1777657923 | 16.67° C | 79% | 1014.4 hPa | 0 mm | - | 318 W/m² | - |
| 1777657443 | 16.67° C | 82% | 1014.4 hPa | 0 mm | - | 309 W/m² | - |
* Rain latest hour (hover to see other rain measurements)
** Current wind speed in m/s (hover to see current wind gust speed)